sensor_id;sensor_type;location;lat;lon;timestamp;P1;durP1;ratioP1;P2;durP2;ratioP2
25846;SDS011;13676;50.168;8.568;2023-11-18T00:00:27;7.70;;;3.92;;
25846;SDS011;13676;50.168;8.568;2023-11-18T00:02:53;5.70;;;3.08;;
25846;SDS011;13676;50.168;8.568;2023-11-18T00:05:18;5.00;;;2.10;;
25846;SDS011;13676;50.168;8.568;2023-11-18T00:07:44;6.10;;;2.90;;
25846;SDS011;13676;50.168;8.568;2023-11-18T00:10:09;5.85;;;2.65;;
25846;SDS011;13676;50.168;8.568;2023-11-18T00:15:05;6.03;;;3.00;;
25846;SDS011;13676;50.168;8.568;2023-11-18T00:17:33;2.88;;;2.20;;
25846;SDS011;13676;50.168;8.568;2023-11-18T00:20:00;5.13;;;2.40;;
25846;SDS011;13676;50.168;8.568;2023-11-18T00:22:26;7.90;;;2.20;;
25846;SDS011;13676;50.168;8.568;2023-11-18T00:24:54;4.93;;;2.40;;
25846;SDS011;13676;50.168;8.568;2023-11-18T00:27:20;4.13;;;2.25;;
25846;SDS011;13676;50.168;8.568;2023-11-18T00:29:47;3.20;;;2.50;;
25846;SDS011;13676;50.168;8.568;2023-11-18T00:32:13;4.38;;;2.30;;
25846;SDS011;13676;50.168;8.568;2023-11-18T00:34:38;3.55;;;2.28;;
25846;SDS011;13676;50.168;8.568;2023-11-18T00:37:03;2.40;;;2.00;;
25846;SDS011;13676;50.168;8.568;2023-11-18T00:39:29;2.88;;;2.20;;
25846;SDS011;13676;50.168;8.568;2023-11-18T00:41:54;5.60;;;2.10;;
25846;SDS011;13676;50.168;8.568;2023-11-18T00:44:21;2.53;;;1.80;;
25846;SDS011;13676;50.168;8.568;2023-11-18T00:46:46;3.50;;;1.88;;
25846;SDS011;13676;50.168;8.568;2023-11-18T00:49:14;2.85;;;2.20;;
25846;SDS011;13676;50.168;8.568;2023-11-18T00:51:40;5.60;;;2.00;;
25846;SDS011;13676;50.168;8.568;2023-11-18T00:54:08;5.38;;;2.05;;
25846;SDS011;13676;50.168;8.568;2023-11-18T00:56:34;4.35;;;2.50;;
25846;SDS011;13676;50.168;8.568;2023-11-18T00:59:01;2.75;;;2.10;;
25846;SDS011;13676;50.168;8.568;2023-11-18T01:01:27;3.65;;;2.10;;
25846;SDS011;13676;50.168;8.568;2023-11-18T01:03:53;4.88;;;2.30;;
25846;SDS011;13676;50.168;8.568;2023-11-18T01:06:20;5.20;;;3.50;;
25846;SDS011;13676;50.168;8.568;2023-11-18T01:08:46;4.75;;;2.55;;
25846;SDS011;13676;50.168;8.568;2023-11-18T01:11:15;4.63;;;2.95;;
25846;SDS011;13676;50.168;8.568;2023-11-18T01:13:45;3.38;;;2.58;;
25846;SDS011;13676;50.168;8.568;2023-11-18T01:16:17;7.00;;;3.58;;
25846;SDS011;13676;50.168;8.568;2023-11-18T01:18:42;5.28;;;3.38;;
25846;SDS011;13676;50.168;8.568;2023-11-18T01:21:08;5.20;;;3.33;;
25846;SDS011;13676;50.168;8.568;2023-11-18T01:23:36;5.95;;;4.07;;
25846;SDS011;13676;50.168;8.568;2023-11-18T01:28:31;6.82;;;3.60;;
25846;SDS011;13676;50.168;8.568;2023-11-18T01:31:03;5.03;;;3.80;;
25846;SDS011;13676;50.168;8.568;2023-11-18T01:33:30;4.30;;;3.63;;
25846;SDS011;13676;50.168;8.568;2023-11-18T01:35:57;8.32;;;4.35;;
25846;SDS011;13676;50.168;8.568;2023-11-18T01:38:23;6.20;;;4.30;;
25846;SDS011;13676;50.168;8.568;2023-11-18T01:40:48;7.82;;;4.50;;
25846;SDS011;13676;50.168;8.568;2023-11-18T01:43:14;6.40;;;4.20;;
25846;SDS011;13676;50.168;8.568;2023-11-18T01:45:42;6.75;;;4.15;;
25846;SDS011;13676;50.168;8.568;2023-11-18T01:48:08;7.70;;;4.32;;
25846;SDS011;13676;50.168;8.568;2023-11-18T01:50:39;10.32;;;5.07;;
25846;SDS011;13676;50.168;8.568;2023-11-18T01:53:06;9.02;;;4.90;;
25846;SDS011;13676;50.168;8.568;2023-11-18T01:55:33;7.88;;;5.63;;
25846;SDS011;13676;50.168;8.568;2023-11-18T01:58:00;7.90;;;5.43;;
25846;SDS011;13676;50.168;8.568;2023-11-18T02:00:33;7.07;;;5.13;;
25846;SDS011;13676;50.168;8.568;2023-11-18T02:05:26;9.65;;;5.50;;
25846;SDS011;13676;50.168;8.568;2023-11-18T02:07:51;9.50;;;6.78;;
25846;SDS011;13676;50.168;8.568;2023-11-18T02:10:17;9.02;;;5.70;;
25846;SDS011;13676;50.168;8.568;2023-11-18T02:15:10;11.88;;;8.02;;
25846;SDS011;13676;50.168;8.568;2023-11-18T02:17:38;10.30;;;6.50;;
25846;SDS011;13676;50.168;8.568;2023-11-18T02:20:05;12.20;;;6.78;;
25846;SDS011;13676;50.168;8.568;2023-11-18T02:22:41;11.73;;;7.30;;
25846;SDS011;13676;50.168;8.568;2023-11-18T02:25:08;11.70;;;6.95;;
25846;SDS011;13676;50.168;8.568;2023-11-18T02:27:37;9.63;;;6.97;;
25846;SDS011;13676;50.168;8.568;2023-11-18T02:30:02;10.25;;;7.00;;
25846;SDS011;13676;50.168;8.568;2023-11-18T02:32:36;12.57;;;8.10;;
25846;SDS011;13676;50.168;8.568;2023-11-18T02:35:05;12.05;;;8.38;;
25846;SDS011;13676;50.168;8.568;2023-11-18T02:37:35;13.60;;;8.10;;
25846;SDS011;13676;50.168;8.568;2023-11-18T02:40:07;10.73;;;7.63;;
25846;SDS011;13676;50.168;8.568;2023-11-18T02:42:39;12.00;;;8.38;;
25846;SDS011;13676;50.168;8.568;2023-11-18T02:45:06;10.93;;;8.00;;
25846;SDS011;13676;50.168;8.568;2023-11-18T02:47:33;12.32;;;7.10;;
25846;SDS011;13676;50.168;8.568;2023-11-18T02:49:58;11.82;;;8.23;;
25846;SDS011;13676;50.168;8.568;2023-11-18T02:52:42;10.88;;;8.07;;
25846;SDS011;13676;50.168;8.568;2023-11-18T02:55:07;11.85;;;7.50;;
25846;SDS011;13676;50.168;8.568;2023-11-18T02:57:34;12.57;;;7.53;;
25846;SDS011;13676;50.168;8.568;2023-11-18T03:00:07;12.20;;;7.38;;
25846;SDS011;13676;50.168;8.568;2023-11-18T03:02:42;11.23;;;7.80;;
25846;SDS011;13676;50.168;8.568;2023-11-18T03:05:09;9.65;;;7.25;;
25846;SDS011;13676;50.168;8.568;2023-11-18T03:07:37;11.32;;;7.45;;
25846;SDS011;13676;50.168;8.568;2023-11-18T03:10:18;16.20;;;7.30;;
25846;SDS011;13676;50.168;8.568;2023-11-18T03:12:49;9.00;;;6.63;;
25846;SDS011;13676;50.168;8.568;2023-11-18T03:15:15;14.57;;;7.90;;
25846;SDS011;13676;50.168;8.568;2023-11-18T03:17:45;12.57;;;8.02;;
25846;SDS011;13676;50.168;8.568;2023-11-18T03:20:14;12.18;;;8.10;;
25846;SDS011;13676;50.168;8.568;2023-11-18T03:22:44;12.77;;;8.80;;
25846;SDS011;13676;50.168;8.568;2023-11-18T03:25:12;12.93;;;8.15;;
25846;SDS011;13676;50.168;8.568;2023-11-18T03:30:04;11.65;;;7.32;;
25846;SDS011;13676;50.168;8.568;2023-11-18T03:32:31;9.60;;;6.00;;
25846;SDS011;13676;50.168;8.568;2023-11-18T03:34:58;6.95;;;5.57;;
25846;SDS011;13676;50.168;8.568;2023-11-18T03:37:26;9.90;;;5.80;;
25846;SDS011;13676;50.168;8.568;2023-11-18T03:39:52;7.22;;;5.32;;
25846;SDS011;13676;50.168;8.568;2023-11-18T03:42:17;10.07;;;6.72;;
25846;SDS011;13676;50.168;8.568;2023-11-18T03:44:43;10.73;;;6.75;;
25846;SDS011;13676;50.168;8.568;2023-11-18T03:47:14;10.45;;;6.70;;
25846;SDS011;13676;50.168;8.568;2023-11-18T03:49:40;10.25;;;6.60;;
25846;SDS011;13676;50.168;8.568;2023-11-18T03:52:06;8.18;;;5.80;;
25846;SDS011;13676;50.168;8.568;2023-11-18T03:54:31;11.35;;;6.75;;
25846;SDS011;13676;50.168;8.568;2023-11-18T03:56:58;8.70;;;6.28;;
25846;SDS011;13676;50.168;8.568;2023-11-18T03:59:24;12.55;;;7.60;;
25846;SDS011;13676;50.168;8.568;2023-11-18T04:01:50;9.40;;;6.30;;
25846;SDS011;13676;50.168;8.568;2023-11-18T04:04:16;11.68;;;7.13;;
25846;SDS011;13676;50.168;8.568;2023-11-18T04:06:42;10.18;;;6.20;;
25846;SDS011;13676;50.168;8.568;2023-11-18T04:09:08;9.27;;;7.05;;
25846;SDS011;13676;50.168;8.568;2023-11-18T04:11:35;8.65;;;6.65;;
25846;SDS011;13676;50.168;8.568;2023-11-18T04:14:02;10.57;;;7.80;;
25846;SDS011;13676;50.168;8.568;2023-11-18T04:16:31;9.07;;;6.85;;
25846;SDS011;13676;50.168;8.568;2023-11-18T04:21:23;11.85;;;8.07;;
25846;SDS011;13676;50.168;8.568;2023-11-18T04:23:48;14.75;;;9.85;;
25846;SDS011;13676;50.168;8.568;2023-11-18T04:26:14;23.20;;;9.63;;
25846;SDS011;13676;50.168;8.568;2023-11-18T04:28:39;26.10;;;9.90;;
25846;SDS011;13676;50.168;8.568;2023-11-18T04:31:06;26.80;;;11.43;;
25846;SDS011;13676;50.168;8.568;2023-11-18T04:33:31;19.15;;;10.90;;
25846;SDS011;13676;50.168;8.568;2023-11-18T04:35:57;16.08;;;10.13;;
25846;SDS011;13676;50.168;8.568;2023-11-18T04:38:22;28.30;;;10.75;;
25846;SDS011;13676;50.168;8.568;2023-11-18T04:40:48;20.13;;;9.95;;
25846;SDS011;13676;50.168;8.568;2023-11-18T04:43:14;12.75;;;9.55;;
25846;SDS011;13676;50.168;8.568;2023-11-18T04:45:40;40.70;;;10.82;;
25846;SDS011;13676;50.168;8.568;2023-11-18T04:48:08;26.67;;;10.80;;
25846;SDS011;13676;50.168;8.568;2023-11-18T04:50:35;20.00;;;9.88;;
25846;SDS011;13676;50.168;8.568;2023-11-18T04:53:01;22.30;;;11.53;;
25846;SDS011;13676;50.168;8.568;2023-11-18T04:55:34;45.72;;;10.95;;
25846;SDS011;13676;50.168;8.568;2023-11-18T04:58:02;18.70;;;10.13;;
25846;SDS011;13676;50.168;8.568;2023-11-18T05:00:31;21.33;;;9.60;;
25846;SDS011;13676;50.168;8.568;2023-11-18T05:02:58;15.95;;;10.80;;
25846;SDS011;13676;50.168;8.568;2023-11-18T05:05:24;18.92;;;10.02;;
25846;SDS011;13676;50.168;8.568;2023-11-18T05:07:50;14.73;;;9.25;;
25846;SDS011;13676;50.168;8.568;2023-11-18T05:10:15;20.90;;;11.23;;
25846;SDS011;13676;50.168;8.568;2023-11-18T05:12:40;33.03;;;11.30;;
25846;SDS011;13676;50.168;8.568;2023-11-18T05:15:20;21.30;;;10.90;;
25846;SDS011;13676;50.168;8.568;2023-11-18T05:17:49;27.65;;;11.88;;
25846;SDS011;13676;50.168;8.568;2023-11-18T05:20:15;17.50;;;11.73;;
25846;SDS011;13676;50.168;8.568;2023-11-18T05:22:41;23.10;;;10.60;;
25846;SDS011;13676;50.168;8.568;2023-11-18T05:25:07;35.90;;;12.13;;
25846;SDS011;13676;50.168;8.568;2023-11-18T05:27:33;26.33;;;13.18;;
25846;SDS011;13676;50.168;8.568;2023-11-18T05:29:58;20.63;;;12.07;;
25846;SDS011;13676;50.168;8.568;2023-11-18T05:32:27;18.20;;;10.85;;
25846;SDS011;13676;50.168;8.568;2023-11-18T05:34:54;18.55;;;12.07;;
25846;SDS011;13676;50.168;8.568;2023-11-18T05:37:22;17.88;;;10.85;;
25846;SDS011;13676;50.168;8.568;2023-11-18T05:39:50;19.63;;;11.15;;
25846;SDS011;13676;50.168;8.568;2023-11-18T05:42:24;21.45;;;12.73;;
25846;SDS011;13676;50.168;8.568;2023-11-18T05:44:52;25.50;;;12.90;;
25846;SDS011;13676;50.168;8.568;2023-11-18T05:47:24;22.75;;;11.57;;
25846;SDS011;13676;50.168;8.568;2023-11-18T05:49:54;22.20;;;11.80;;
25846;SDS011;13676;50.168;8.568;2023-11-18T05:52:19;23.75;;;10.98;;
25846;SDS011;13676;50.168;8.568;2023-11-18T05:54:45;23.83;;;11.45;;
25846;SDS011;13676;50.168;8.568;2023-11-18T05:57:15;31.23;;;11.20;;
25846;SDS011;13676;50.168;8.568;2023-11-18T05:59:41;21.45;;;10.98;;
25846;SDS011;13676;50.168;8.568;2023-11-18T06:02:07;25.52;;;11.80;;
25846;SDS011;13676;50.168;8.568;2023-11-18T06:04:33;25.40;;;12.77;;
25846;SDS011;13676;50.168;8.568;2023-11-18T06:06:58;20.85;;;11.88;;
25846;SDS011;13676;50.168;8.568;2023-11-18T06:09:24;21.67;;;11.27;;
25846;SDS011;13676;50.168;8.568;2023-11-18T06:11:51;28.27;;;12.43;;
25846;SDS011;13676;50.168;8.568;2023-11-18T06:14:18;28.90;;;12.68;;
25846;SDS011;13676;50.168;8.568;2023-11-18T06:16:44;23.70;;;11.93;;
25846;SDS011;13676;50.168;8.568;2023-11-18T06:19:10;25.95;;;13.30;;
25846;SDS011;13676;50.168;8.568;2023-11-18T06:21:37;23.10;;;11.98;;
25846;SDS011;13676;50.168;8.568;2023-11-18T06:24:04;25.23;;;12.45;;
25846;SDS011;13676;50.168;8.568;2023-11-18T06:26:31;34.33;;;13.63;;
25846;SDS011;13676;50.168;8.568;2023-11-18T06:29:00;32.38;;;15.18;;
25846;SDS011;13676;50.168;8.568;2023-11-18T06:31:26;29.77;;;13.38;;
25846;SDS011;13676;50.168;8.568;2023-11-18T06:33:54;28.45;;;14.38;;
25846;SDS011;13676;50.168;8.568;2023-11-18T06:36:20;27.27;;;14.02;;
25846;SDS011;13676;50.168;8.568;2023-11-18T06:38:50;33.45;;;15.30;;
25846;SDS011;13676;50.168;8.568;2023-11-18T06:41:16;25.50;;;13.50;;
25846;SDS011;13676;50.168;8.568;2023-11-18T06:43:43;28.25;;;13.60;;
25846;SDS011;13676;50.168;8.568;2023-11-18T06:46:27;35.83;;;15.73;;
25846;SDS011;13676;50.168;8.568;2023-11-18T06:48:58;24.95;;;14.45;;
25846;SDS011;13676;50.168;8.568;2023-11-18T06:51:30;23.85;;;12.85;;
25846;SDS011;13676;50.168;8.568;2023-11-18T06:53:57;24.45;;;12.95;;
25846;SDS011;13676;50.168;8.568;2023-11-18T06:56:24;22.35;;;13.00;;
25846;SDS011;13676;50.168;8.568;2023-11-18T06:58:50;34.25;;;14.23;;
25846;SDS011;13676;50.168;8.568;2023-11-18T07:01:16;30.00;;;14.23;;
25846;SDS011;13676;50.168;8.568;2023-11-18T07:03:43;42.25;;;17.20;;
25846;SDS011;13676;50.168;8.568;2023-11-18T07:06:09;25.02;;;13.52;;
25846;SDS011;13676;50.168;8.568;2023-11-18T07:08:36;28.33;;;14.80;;
25846;SDS011;13676;50.168;8.568;2023-11-18T07:11:02;32.47;;;16.02;;
25846;SDS011;13676;50.168;8.568;2023-11-18T07:13:30;29.05;;;16.60;;
25846;SDS011;13676;50.168;8.568;2023-11-18T07:15:56;31.35;;;17.83;;
25846;SDS011;13676;50.168;8.568;2023-11-18T07:18:25;30.75;;;16.13;;
25846;SDS011;13676;50.168;8.568;2023-11-18T07:20:51;26.90;;;15.73;;
25846;SDS011;13676;50.168;8.568;2023-11-18T07:23:18;29.33;;;15.15;;
25846;SDS011;13676;50.168;8.568;2023-11-18T07:25:44;26.02;;;13.57;;
25846;SDS011;13676;50.168;8.568;2023-11-18T07:28:13;27.17;;;14.30;;
25846;SDS011;13676;50.168;8.568;2023-11-18T07:30:41;24.92;;;15.15;;
25846;SDS011;13676;50.168;8.568;2023-11-18T07:33:10;20.45;;;12.43;;
25846;SDS011;13676;50.168;8.568;2023-11-18T07:35:36;27.15;;;14.20;;
25846;SDS011;13676;50.168;8.568;2023-11-18T07:38:02;24.40;;;14.75;;
25846;SDS011;13676;50.168;8.568;2023-11-18T07:40:30;27.60;;;14.45;;
25846;SDS011;13676;50.168;8.568;2023-11-18T07:42:55;26.08;;;15.27;;
25846;SDS011;13676;50.168;8.568;2023-11-18T07:45:21;27.00;;;15.23;;
25846;SDS011;13676;50.168;8.568;2023-11-18T07:47:49;27.15;;;15.52;;
25846;SDS011;13676;50.168;8.568;2023-11-18T07:50:16;26.55;;;14.30;;
25846;SDS011;13676;50.168;8.568;2023-11-18T07:52:45;24.70;;;14.18;;
25846;SDS011;13676;50.168;8.568;2023-11-18T07:55:14;24.88;;;13.98;;
25846;SDS011;13676;50.168;8.568;2023-11-18T07:57:42;24.83;;;14.77;;
25846;SDS011;13676;50.168;8.568;2023-11-18T08:00:08;24.38;;;14.02;;
25846;SDS011;13676;50.168;8.568;2023-11-18T08:02:35;23.65;;;13.82;;
25846;SDS011;13676;50.168;8.568;2023-11-18T08:05:02;23.65;;;13.48;;
25846;SDS011;13676;50.168;8.568;2023-11-18T08:07:33;22.23;;;13.15;;
25846;SDS011;13676;50.168;8.568;2023-11-18T08:10:02;26.27;;;14.68;;
25846;SDS011;13676;50.168;8.568;2023-11-18T08:12:32;28.20;;;14.70;;
25846;SDS011;13676;50.168;8.568;2023-11-18T08:14:58;19.40;;;12.60;;
25846;SDS011;13676;50.168;8.568;2023-11-18T08:17:24;21.13;;;12.48;;
25846;SDS011;13676;50.168;8.568;2023-11-18T08:19:52;22.08;;;13.30;;
25846;SDS011;13676;50.168;8.568;2023-11-18T08:22:18;27.08;;;14.60;;
25846;SDS011;13676;50.168;8.568;2023-11-18T08:24:47;23.10;;;13.82;;
25846;SDS011;13676;50.168;8.568;2023-11-18T08:27:13;26.77;;;13.85;;
25846;SDS011;13676;50.168;8.568;2023-11-18T08:29:39;28.83;;;14.90;;
25846;SDS011;13676;50.168;8.568;2023-11-18T08:32:05;28.50;;;16.20;;
25846;SDS011;13676;50.168;8.568;2023-11-18T08:34:34;22.75;;;12.82;;
25846;SDS011;13676;50.168;8.568;2023-11-18T08:37:06;26.65;;;14.75;;
25846;SDS011;13676;50.168;8.568;2023-11-18T08:55:26;28.63;;;16.77;;
25846;SDS011;13676;50.168;8.568;2023-11-18T08:57:58;29.13;;;17.15;;
25846;SDS011;13676;50.168;8.568;2023-11-18T09:00:27;27.73;;;17.95;;
25846;SDS011;13676;50.168;8.568;2023-11-18T09:05:52;33.72;;;18.02;;
25846;SDS011;13676;50.168;8.568;2023-11-18T09:08:23;30.08;;;17.58;;
25846;SDS011;13676;50.168;8.568;2023-11-18T09:11:03;33.97;;;19.27;;
25846;SDS011;13676;50.168;8.568;2023-11-18T09:13:30;34.47;;;18.95;;
25846;SDS011;13676;50.168;8.568;2023-11-18T09:15:57;47.35;;;18.70;;
25846;SDS011;13676;50.168;8.568;2023-11-18T09:18:23;41.90;;;19.30;;
25846;SDS011;13676;50.168;8.568;2023-11-18T09:20:50;33.40;;;17.02;;
25846;SDS011;13676;50.168;8.568;2023-11-18T09:23:17;36.30;;;18.55;;
25846;SDS011;13676;50.168;8.568;2023-11-18T09:25:47;34.42;;;16.88;;
25846;SDS011;13676;50.168;8.568;2023-11-18T09:28:14;43.50;;;20.52;;
25846;SDS011;13676;50.168;8.568;2023-11-18T09:30:42;44.28;;;19.52;;
25846;SDS011;13676;50.168;8.568;2023-11-18T09:33:16;45.67;;;20.63;;
25846;SDS011;13676;50.168;8.568;2023-11-18T09:35:50;39.08;;;17.80;;
25846;SDS011;13676;50.168;8.568;2023-11-18T09:38:17;41.65;;;18.63;;
25846;SDS011;13676;50.168;8.568;2023-11-18T09:40:44;39.80;;;18.88;;
25846;SDS011;13676;50.168;8.568;2023-11-18T09:43:11;36.15;;;17.48;;
25846;SDS011;13676;50.168;8.568;2023-11-18T09:45:39;45.75;;;18.80;;
25846;SDS011;13676;50.168;8.568;2023-11-18T09:48:05;44.75;;;18.48;;
25846;SDS011;13676;50.168;8.568;2023-11-18T09:50:32;56.10;;;24.07;;
25846;SDS011;13676;50.168;8.568;2023-11-18T09:52:58;48.65;;;22.17;;
25846;SDS011;13676;50.168;8.568;2023-11-18T09:55:28;45.42;;;20.33;;
25846;SDS011;13676;50.168;8.568;2023-11-18T09:58:07;48.90;;;22.52;;
25846;SDS011;13676;50.168;8.568;2023-11-18T10:00:39;51.92;;;23.15;;
25846;SDS011;13676;50.168;8.568;2023-11-18T10:03:08;47.33;;;21.95;;
25846;SDS011;13676;50.168;8.568;2023-11-18T10:05:35;53.03;;;22.38;;
25846;SDS011;13676;50.168;8.568;2023-11-18T10:08:02;47.20;;;22.42;;
25846;SDS011;13676;50.168;8.568;2023-11-18T10:10:31;59.75;;;23.90;;
25846;SDS011;13676;50.168;8.568;2023-11-18T10:13:03;50.80;;;22.40;;
25846;SDS011;13676;50.168;8.568;2023-11-18T10:15:34;46.28;;;23.10;;
25846;SDS011;13676;50.168;8.568;2023-11-18T10:18:00;55.17;;;23.55;;
25846;SDS011;13676;50.168;8.568;2023-11-18T10:20:44;56.22;;;23.90;;
25846;SDS011;13676;50.168;8.568;2023-11-18T10:23:13;48.40;;;22.98;;
25846;SDS011;13676;50.168;8.568;2023-11-18T10:25:54;50.97;;;23.35;;
25846;SDS011;13676;50.168;8.568;2023-11-18T10:28:24;47.13;;;20.70;;
25846;SDS011;13676;50.168;8.568;2023-11-18T10:30:52;54.42;;;21.77;;
25846;SDS011;13676;50.168;8.568;2023-11-18T10:33:30;48.92;;;21.80;;
25846;SDS011;13676;50.168;8.568;2023-11-18T10:35:58;53.58;;;23.75;;
25846;SDS011;13676;50.168;8.568;2023-11-18T10:38:28;52.30;;;23.23;;
25846;SDS011;13676;50.168;8.568;2023-11-18T10:40:58;48.88;;;22.30;;
25846;SDS011;13676;50.168;8.568;2023-11-18T10:43:26;62.45;;;22.95;;
25846;SDS011;13676;50.168;8.568;2023-11-18T10:46:03;49.80;;;21.25;;
25846;SDS011;13676;50.168;8.568;2023-11-18T10:48:41;65.00;;;23.88;;
25846;SDS011;13676;50.168;8.568;2023-11-18T10:51:14;71.22;;;25.50;;
25846;SDS011;13676;50.168;8.568;2023-11-18T10:53:46;51.20;;;24.55;;
25846;SDS011;13676;50.168;8.568;2023-11-18T10:58:58;63.42;;;27.48;;
25846;SDS011;13676;50.168;8.568;2023-11-18T11:01:30;57.35;;;25.75;;
25846;SDS011;13676;50.168;8.568;2023-11-18T11:03:57;64.85;;;24.77;;
25846;SDS011;13676;50.168;8.568;2023-11-18T11:08:58;54.75;;;26.52;;
25846;SDS011;13676;50.168;8.568;2023-11-18T11:14:00;51.92;;;25.02;;
25846;SDS011;13676;50.168;8.568;2023-11-18T11:16:28;61.13;;;26.02;;
25846;SDS011;13676;50.168;8.568;2023-11-18T11:19:04;51.45;;;24.92;;
25846;SDS011;13676;50.168;8.568;2023-11-18T11:21:37;69.65;;;27.00;;
25846;SDS011;13676;50.168;8.568;2023-11-18T11:24:06;65.80;;;28.45;;
25846;SDS011;13676;50.168;8.568;2023-11-18T11:32:21;59.75;;;25.75;;
25846;SDS011;13676;50.168;8.568;2023-11-18T11:34:56;70.05;;;26.92;;
25846;SDS011;13676;50.168;8.568;2023-11-18T11:37:24;65.10;;;25.52;;
25846;SDS011;13676;50.168;8.568;2023-11-18T11:39:56;58.95;;;25.95;;
25846;SDS011;13676;50.168;8.568;2023-11-18T11:42:24;50.03;;;24.27;;
25846;SDS011;13676;50.168;8.568;2023-11-18T11:44:49;54.42;;;25.08;;
25846;SDS011;13676;50.168;8.568;2023-11-18T11:47:18;79.35;;;27.42;;
25846;SDS011;13676;50.168;8.568;2023-11-18T11:49:49;58.85;;;26.83;;
25846;SDS011;13676;50.168;8.568;2023-11-18T11:52:28;56.63;;;26.08;;
25846;SDS011;13676;50.168;8.568;2023-11-18T11:54:58;65.57;;;26.58;;
25846;SDS011;13676;50.168;8.568;2023-11-18T11:57:31;64.57;;;25.02;;
25846;SDS011;13676;50.168;8.568;2023-11-18T12:00:04;68.05;;;27.13;;
25846;SDS011;13676;50.168;8.568;2023-11-18T12:02:50;74.90;;;28.10;;
25846;SDS011;13676;50.168;8.568;2023-11-18T12:05:23;67.35;;;28.90;;
25846;SDS011;13676;50.168;8.568;2023-11-18T12:07:55;60.75;;;27.75;;
25846;SDS011;13676;50.168;8.568;2023-11-18T12:12:49;69.53;;;28.10;;
25846;SDS011;13676;50.168;8.568;2023-11-18T12:15:47;62.78;;;28.73;;
25846;SDS011;13676;50.168;8.568;2023-11-18T12:18:20;67.15;;;27.48;;
25846;SDS011;13676;50.168;8.568;2023-11-18T12:20:47;69.30;;;28.20;;
25846;SDS011;13676;50.168;8.568;2023-11-18T12:23:13;59.58;;;26.48;;
25846;SDS011;13676;50.168;8.568;2023-11-18T12:25:40;61.75;;;26.10;;
25846;SDS011;13676;50.168;8.568;2023-11-18T12:28:16;57.63;;;26.13;;
25846;SDS011;13676;50.168;8.568;2023-11-18T12:30:47;60.13;;;27.23;;
25846;SDS011;13676;50.168;8.568;2023-11-18T12:33:18;62.53;;;28.17;;
25846;SDS011;13676;50.168;8.568;2023-11-18T12:40:54;64.45;;;30.13;;
25846;SDS011;13676;50.168;8.568;2023-11-18T12:43:49;62.28;;;28.35;;
25846;SDS011;13676;50.168;8.568;2023-11-18T12:49:02;57.80;;;25.70;;
25846;SDS011;13676;50.168;8.568;2023-11-18T12:51:27;57.58;;;25.55;;
25846;SDS011;13676;50.168;8.568;2023-11-18T12:53:53;53.90;;;26.23;;
25846;SDS011;13676;50.168;8.568;2023-11-18T12:56:19;62.65;;;27.90;;
25846;SDS011;13676;50.168;8.568;2023-11-18T12:58:45;57.60;;;27.65;;
25846;SDS011;13676;50.168;8.568;2023-11-18T13:01:12;54.70;;;26.70;;
25846;SDS011;13676;50.168;8.568;2023-11-18T13:03:39;61.72;;;26.42;;
25846;SDS011;13676;50.168;8.568;2023-11-18T13:06:07;55.70;;;26.98;;
25846;SDS011;13676;50.168;8.568;2023-11-18T13:08:33;55.10;;;25.42;;
25846;SDS011;13676;50.168;8.568;2023-11-18T13:10:59;55.15;;;27.13;;
25846;SDS011;13676;50.168;8.568;2023-11-18T13:13:30;62.55;;;27.58;;
25846;SDS011;13676;50.168;8.568;2023-11-18T13:15:58;57.08;;;27.98;;
25846;SDS011;13676;50.168;8.568;2023-11-18T13:18:24;59.05;;;29.58;;
25846;SDS011;13676;50.168;8.568;2023-11-18T13:20:55;64.82;;;29.70;;
25846;SDS011;13676;50.168;8.568;2023-11-18T13:23:24;53.83;;;27.92;;
25846;SDS011;13676;50.168;8.568;2023-11-18T13:25:54;55.85;;;28.00;;
25846;SDS011;13676;50.168;8.568;2023-11-18T13:28:24;46.05;;;25.33;;
25846;SDS011;13676;50.168;8.568;2023-11-18T13:30:50;46.88;;;24.15;;
25846;SDS011;13676;50.168;8.568;2023-11-18T13:33:15;46.60;;;24.08;;
25846;SDS011;13676;50.168;8.568;2023-11-18T13:35:42;43.47;;;24.15;;
25846;SDS011;13676;50.168;8.568;2023-11-18T13:38:08;38.50;;;23.05;;
25846;SDS011;13676;50.168;8.568;2023-11-18T13:40:45;48.35;;;24.02;;
25846;SDS011;13676;50.168;8.568;2023-11-18T13:43:11;39.25;;;20.13;;
25846;SDS011;13676;50.168;8.568;2023-11-18T13:45:37;35.40;;;20.95;;
25846;SDS011;13676;50.168;8.568;2023-11-18T13:48:04;36.67;;;20.40;;
25846;SDS011;13676;50.168;8.568;2023-11-18T13:50:34;32.67;;;17.92;;
25846;SDS011;13676;50.168;8.568;2023-11-18T13:53:00;27.00;;;17.02;;
25846;SDS011;13676;50.168;8.568;2023-11-18T13:55:25;27.92;;;16.42;;
25846;SDS011;13676;50.168;8.568;2023-11-18T13:57:56;24.63;;;15.82;;
25846;SDS011;13676;50.168;8.568;2023-11-18T14:00:26;19.45;;;14.25;;
25846;SDS011;13676;50.168;8.568;2023-11-18T14:02:55;20.77;;;13.60;;
25846;SDS011;13676;50.168;8.568;2023-11-18T14:05:21;22.13;;;14.27;;
25846;SDS011;13676;50.168;8.568;2023-11-18T14:10:15;16.67;;;12.10;;
25846;SDS011;13676;50.168;8.568;2023-11-18T14:13:03;16.73;;;13.35;;
25846;SDS011;13676;50.168;8.568;2023-11-18T14:15:31;16.20;;;12.43;;
25846;SDS011;13676;50.168;8.568;2023-11-18T14:18:00;12.00;;;10.07;;
25846;SDS011;13676;50.168;8.568;2023-11-18T14:20:26;18.27;;;11.48;;
25846;SDS011;13676;50.168;8.568;2023-11-18T14:22:52;16.92;;;11.13;;
25846;SDS011;13676;50.168;8.568;2023-11-18T14:25:19;13.00;;;9.57;;
25846;SDS011;13676;50.168;8.568;2023-11-18T14:27:44;14.52;;;10.93;;
25846;SDS011;13676;50.168;8.568;2023-11-18T14:30:10;14.52;;;10.77;;
25846;SDS011;13676;50.168;8.568;2023-11-18T14:32:37;16.20;;;10.93;;
25846;SDS011;13676;50.168;8.568;2023-11-18T14:35:03;18.70;;;9.30;;
25846;SDS011;13676;50.168;8.568;2023-11-18T14:37:31;12.30;;;9.05;;
25846;SDS011;13676;50.168;8.568;2023-11-18T14:39:57;11.88;;;8.70;;
25846;SDS011;13676;50.168;8.568;2023-11-18T14:42:22;15.13;;;9.18;;
25846;SDS011;13676;50.168;8.568;2023-11-18T14:44:49;19.10;;;9.82;;
25846;SDS011;13676;50.168;8.568;2023-11-18T14:47:15;17.80;;;9.43;;
25846;SDS011;13676;50.168;8.568;2023-11-18T14:49:41;13.05;;;8.15;;
25846;SDS011;13676;50.168;8.568;2023-11-18T14:52:08;14.15;;;8.25;;
25846;SDS011;13676;50.168;8.568;2023-11-18T14:54:34;10.68;;;7.55;;
25846;SDS011;13676;50.168;8.568;2023-11-18T14:57:01;14.63;;;9.00;;
25846;SDS011;13676;50.168;8.568;2023-11-18T14:59:28;10.90;;;8.40;;
25846;SDS011;13676;50.168;8.568;2023-11-18T15:01:55;12.68;;;8.27;;
25846;SDS011;13676;50.168;8.568;2023-11-18T15:04:23;12.65;;;8.43;;
25846;SDS011;13676;50.168;8.568;2023-11-18T15:06:52;11.52;;;8.32;;
25846;SDS011;13676;50.168;8.568;2023-11-18T15:09:20;15.68;;;8.75;;
25846;SDS011;13676;50.168;8.568;2023-11-18T15:11:48;13.38;;;7.95;;
25846;SDS011;13676;50.168;8.568;2023-11-18T15:14:15;11.65;;;8.20;;
25846;SDS011;13676;50.168;8.568;2023-11-18T15:16:42;10.82;;;8.95;;
25846;SDS011;13676;50.168;8.568;2023-11-18T15:19:10;12.07;;;7.30;;
25846;SDS011;13676;50.168;8.568;2023-11-18T15:21:36;12.50;;;7.90;;
25846;SDS011;13676;50.168;8.568;2023-11-18T15:24:02;11.30;;;8.35;;
25846;SDS011;13676;50.168;8.568;2023-11-18T15:26:29;11.40;;;7.60;;
25846;SDS011;13676;50.168;8.568;2023-11-18T15:28:56;11.75;;;7.00;;
25846;SDS011;13676;50.168;8.568;2023-11-18T15:31:25;11.82;;;6.63;;
25846;SDS011;13676;50.168;8.568;2023-11-18T15:33:55;12.80;;;7.45;;